Time;durP1;ratioP1;P1;durP2;ratioP2;P2;SDS_P1;SDS_P2;PMS_P1;PMS_P2;Temp;Humidity;BMP_temperature;BMP_pressure;BME280_temperature;BME280_humidity;BME280_pressure;Samples;Min_cycle;Max_cycle;Signal;HPM_P1;HPM_P2
2023/03/28 00:00:42;;;;;;;;;;;;;;;-0.16;100.00;102637.69;5018562;28;20457;-75
2023/03/28 00:03:07;;;;;;;;;;;;;;;-0.16;100.00;102640.34;5016282;28;20026;-75
2023/03/28 00:05:33;;;;;;;;;;;;;;;-0.18;100.00;102639.47;5033503;28;19920;-75
2023/03/28 00:07:58;;;;;;;;;;;;;;;-0.19;100.00;102639.50;5034536;28;19930;-75
2023/03/28 00:10:24;;;;;;;;;;;;;;;-0.15;100.00;102641.25;5052456;28;19931;-75
2023/03/28 00:12:49;;;;;;;;;;;;;;;-0.13;100.00;102639.44;5032127;28;19920;-75
2023/03/28 00:15:15;;;;;;;;;;;;;;;-0.09;100.00;102641.19;5028282;28;20350;-75
2023/03/28 00:17:42;;;;;;;;;;;;;;;-0.08;100.00;102636.81;5034965;28;20359;-75
2023/03/28 00:20:09;;;;;;;;;;;;;;;-0.09;100.00;102635.91;5034982;28;19920;-75
2023/03/28 00:22:36;;;;;;;;;;;;;;;-0.10;100.00;102634.16;5019106;28;19925;-75
2023/03/28 00:25:02;;;;;;;;;;;;;;;-0.13;100.00;102636.78;5053635;28;20044;-75
2023/03/28 00:27:27;;;;;;;;;;;;;;;-0.43;100.00;102588.53;5034216;28;20257;-75
2023/03/28 00:29:53;;;;;;;;;;;;;;;-0.10;100.00;102628.88;5051526;28;19924;-75
2023/03/28 00:32:18;;;;;;;;;;;;;;;-0.13;100.00;102631.50;5050617;28;19920;-75
2023/03/28 00:34:43;;;;;;;;;;;;;;;-0.09;100.00;102635.03;5056520;28;20319;-75
2023/03/28 00:37:09;;;;;;;;;;;;;;;-0.14;100.00;102635.06;5057023;28;19923;-75
2023/03/28 00:39:35;;;;;;;;;;;;;;;-0.18;100.00;102638.59;5033964;28;19934;-75
2023/03/28 00:42:01;;;;;;;;;;;;;;;-0.16;100.00;102635.06;5040292;28;19916;-75
2023/03/28 00:44:35;;;;;;;;;;;;;;;-0.18;100.00;102631.53;5018261;28;19924;-74
2023/03/28 00:47:01;;;;;;;;;;;;;;;-0.16;100.00;102637.69;5054873;28;20370;-75
2023/03/28 00:49:26;;;;;;;;;;;;;;;-0.11;100.00;102632.38;5022421;28;19920;-74
2023/03/28 00:51:54;;;;;;;;;;;;;;;-0.11;100.00;102637.66;5038723;28;20159;-75
2023/03/28 00:54:19;;;;;;;;;;;;;;;-0.14;100.00;102634.19;5037130;28;20461;-75
2023/03/28 00:56:46;;;;;;;;;;;;;;;-0.21;100.00;102634.19;5040972;28;19924;-75
2023/03/28 00:59:12;;;;;;;;;;;;;;;-0.28;100.00;102637.75;5052304;28;19931;-75
2023/03/28 01:01:38;;;;;;;;;;;;;;;-0.36;100.00;102634.25;5039952;28;19917;-75
2023/03/28 01:04:04;;;;;;;;;;;;;;;-0.44;100.00;102639.56;5039820;28;19920;-75
2023/03/28 01:06:31;;;;;;;;;;;;;;;-0.49;100.00;102641.34;5040757;28;19947;-75
2023/03/28 01:08:56;;;;;;;;;;;;;;;-0.50;100.00;102639.56;5031970;28;19920;-75
2023/03/28 01:11:22;;;;;;;;;;;;;;;-0.54;100.00;102633.44;5030732;28;20387;-75
2023/03/28 01:13:48;;;;;;;;;;;;;;;-0.51;100.00;102638.69;5029727;28;19986;-75
2023/03/28 01:16:14;;;;;;;;;;;;;;;-0.55;100.00;102630.78;5030137;28;20697;-75
2023/03/28 01:18:40;;;;;;;;;;;;;;;-0.54;100.00;102636.06;5026301;28;20427;-75
2023/03/28 01:21:17;;;;;;;;;;;;;;;-0.60;100.00;102630.81;5031339;28;19942;-74
2023/03/28 01:23:42;;;;;;;;;;;;;;;-0.57;100.00;102622.00;5032219;28;19924;-74
2023/03/28 01:26:26;;;;;;;;;;;;;;;-0.66;100.00;102628.19;5051637;28;20378;-75
2023/03/28 01:28:55;;;;;;;;;;;;;;;-0.67;100.00;102623.78;5044948;28;20327;-75
2023/03/28 01:31:35;;;;;;;;;;;;;;;-0.69;100.00;102621.16;5028777;28;20260;-75
2023/03/28 01:34:06;;;;;;;;;;;;;;;-0.71;100.00;102627.31;5048704;28;19920;-75
2023/03/28 01:36:44;;;;;;;;;;;;;;;-0.71;100.00;102622.91;5032534;28;19921;-75
2023/03/28 01:39:22;;;;;;;;;;;;;;;-0.68;100.00;102612.38;5047056;28;20409;-75
2023/03/28 01:41:47;;;;;;;;;;;;;;;-0.64;100.00;102619.38;5019440;28;19964;-75
2023/03/28 01:44:31;;;;;;;;;;;;;;;-0.66;100.00;102620.25;5053867;28;19962;-75
2023/03/28 01:47:15;;;;;;;;;;;;;;;-0.60;100.00;102617.63;5034091;28;19943;-75
2023/03/28 01:50:01;;;;;;;;;;;;;;;-0.58;100.00;102610.59;5052005;28;19956;-75
2023/03/28 01:52:32;;;;;;;;;;;;;;;-0.55;100.00;102621.13;5030043;28;20072;-74
2023/03/28 01:55:12;;;;;;;;;;;;;;;-0.62;100.00;102617.59;5053397;28;19964;-75
2023/03/28 01:57:40;;;;;;;;;;;;;;;-0.67;100.00;102627.31;5047866;28;20426;-75
2023/03/28 02:00:10;;;;;;;;;;;;;;;-0.67;100.00;102621.16;5015852;28;20362;-75
2023/03/28 02:02:39;;;;;;;;;;;;;;;-0.73;100.00;102622.03;5031184;28;19959;-75
2023/03/28 02:05:05;;;;;;;;;;;;;;;-0.71;100.00;102615.00;5050241;28;19943;-75
2023/03/28 02:07:32;;;;;;;;;;;;;;;-0.70;100.00;102611.50;5012152;28;19985;-75
2023/03/28 02:09:57;;;;;;;;;;;;;;;-0.67;100.00;102608.84;5027369;28;19976;-75
2023/03/28 02:12:29;;;;;;;;;;;;;;;-0.69;100.00;102601.81;5014799;28;20016;-75
2023/03/28 02:14:55;;;;;;;;;;;;;;;-0.67;100.00;102608.84;5032325;28;19920;-75
2023/03/28 02:17:20;;;;;;;;;;;;;;;-0.70;100.00;102603.56;5027896;28;20670;-75
2023/03/28 02:19:49;;;;;;;;;;;;;;;-0.70;100.00;102611.50;5030608;28;20017;-75
2023/03/28 02:22:37;;;;;;;;;;;;;;;-0.71;100.00;102606.19;5032058;28;19967;-75
2023/03/28 02:25:04;;;;;;;;;;;;;;;-0.74;100.00;102615.00;5036250;28;19943;-75
2023/03/28 02:27:30;;;;;;;;;;;;;;;-0.71;100.00;102612.38;5050369;28;19924;-75
2023/03/28 02:29:55;;;;;;;;;;;;;;;-0.70;100.00;102606.22;5012124;28;19924;-75
2023/03/28 02:32:22;;;;;;;;;;;;;;;-0.72;100.00;102604.44;5031068;28;20375;-74
2023/03/28 02:34:48;;;;;;;;;;;;;;;-0.79;100.00;102606.22;5017189;28;19920;-75
2023/03/28 02:37:13;;;;;;;;;;;;;;;-0.78;100.00;102603.56;5031290;28;19928;-75
2023/03/28 02:39:45;;;;;;;;;;;;;;;-0.79;100.00;102609.72;5032858;28;20489;-75
2023/03/28 02:42:13;;;;;;;;;;;;;;;-0.78;100.00;102602.69;5034345;28;20534;-75
2023/03/28 02:44:52;;;;;;;;;;;;;;;-0.76;100.00;102607.06;5034150;28;19920;-75
2023/03/28 02:47:34;;;;;;;;;;;;;;;-0.72;100.00;102597.41;5051656;28;20651;-75
2023/03/28 02:50:18;;;;;;;;;;;;;;;-0.72;100.00;102607.97;5017475;28;20364;-75
2023/03/28 02:52:49;;;;;;;;;;;;;;;-0.73;100.00;102607.97;5052514;28;19921;-75
2023/03/28 02:55:33;;;;;;;;;;;;;;;-0.77;100.00;102604.47;5050766;28;20395;-75
2023/03/28 02:58:00;;;;;;;;;;;;;;;-0.95;100.00;102579.88;5055035;28;20054;-75
2023/03/28 03:00:26;;;;;;;;;;;;;;;-0.85;100.00;102609.75;5020990;28;20333;-75
2023/03/28 03:02:51;;;;;;;;;;;;;;;-0.86;100.00;102610.63;5058804;28;19927;-75
2023/03/28 03:05:19;;;;;;;;;;;;;;;-0.87;100.00;102607.97;5018257;28;20007;-77
2023/03/28 03:07:44;;;;;;;;;;;;;;;-0.92;100.00;102600.94;5040435;28;19921;-76
2023/03/28 03:10:10;;;;;;;;;;;;;;;-0.94;100.00;102607.13;5039205;28;19928;-76
2023/03/28 03:12:35;;;;;;;;;;;;;;;-0.93;100.00;102606.25;5037889;28;19916;-76
2023/03/28 03:15:02;;;;;;;;;;;;;;;-0.92;100.00;102603.59;5038295;28;19921;-76
2023/03/28 03:17:28;;;;;;;;;;;;;;;-0.93;100.00;102601.81;5022374;28;20055;-76
2023/03/28 03:19:53;;;;;;;;;;;;;;;-1.07;100.00;102579.88;5025508;28;20305;-76
2023/03/28 03:22:19;;;;;;;;;;;;;;;-0.92;100.00;102602.72;5024537;28;19920;-76
2023/03/28 03:24:45;;;;;;;;;;;;;;;-0.96;100.00;102604.50;5039256;28;19947;-76
2023/03/28 03:27:10;;;;;;;;;;;;;;;-0.97;100.00;102600.09;5039807;28;19920;-76
2023/03/28 03:29:36;;;;;;;;;;;;;;;-0.96;100.00;102606.25;5037208;28;20382;-76
2023/03/28 03:32:01;;;;;;;;;;;;;;;-1.00;100.00;102604.47;5054576;28;20320;-76
2023/03/28 03:34:26;;;;;;;;;;;;;;;-1.02;100.00;102601.84;5019229;28;19924;-76
2023/03/28 03:36:55;;;;;;;;;;;;;;;-1.03;100.00;102610.66;5040031;28;19917;-76
2023/03/28 03:39:20;;;;;;;;;;;;;;;-1.08;100.00;102607.13;5022321;28;19956;-76
2023/03/28 03:41:46;;;;;;;;;;;;;;;-1.11;100.00;102610.66;5040808;28;20004;-76
2023/03/28 03:44:11;;;;;;;;;;;;;;;-1.13;100.00;102604.50;5014322;28;20405;-76
2023/03/28 03:46:36;;;;;;;;;;;;;;;-1.18;100.00;102610.63;5032379;28;19970;-76
2023/03/28 03:49:01;;;;;;;;;;;;;;;-1.21;100.00;102604.50;5018672;28;20010;-76
2023/03/28 03:51:27;;;;;;;;;;;;;;;-1.21;100.00;102600.97;5019728;28;19929;-76
2023/03/28 03:53:52;;;;;;;;;;;;;;;-1.30;100.00;102598.34;5035770;28;19921;-76
2023/03/28 03:56:17;;;;;;;;;;;;;;;-1.32;100.00;102606.25;5038539;28;19974;-76
2023/03/28 03:58:42;;;;;;;;;;;;;;;-1.32;100.00;102594.84;5040691;28;19948;-76
2023/03/28 04:01:12;;;;;;;;;;;;;;;-1.33;100.00;102604.50;5026244;28;20053;-76
2023/03/28 04:03:38;;;;;;;;;;;;;;;-1.44;100.00;102608.88;5026917;28;19916;-76
2023/03/28 04:06:04;;;;;;;;;;;;;;;-1.44;100.00;102599.22;5042392;28;19920;-76
2023/03/28 04:08:29;;;;;;;;;;;;;;;-1.45;100.00;102607.09;5041509;28;19920;-76
2023/03/28 04:10:55;;;;;;;;;;;;;;;-1.49;100.00;102605.38;5040438;28;19955;-76
2023/03/28 04:13:20;;;;;;;;;;;;;;;-1.51;100.00;102603.63;5025422;28;19917;-76
2023/03/28 04:15:46;;;;;;;;;;;;;;;-1.54;100.00;102598.34;5024331;28;19927;-76
2023/03/28 04:18:12;;;;;;;;;;;;;;;-1.48;100.00;102608.00;5023199;28;19920;-76
2023/03/28 04:20:39;;;;;;;;;;;;;;;-1.47;100.00;102606.25;5043231;28;19932;-76
2023/03/28 04:23:04;;;;;;;;;;;;;;;-1.49;100.00;102603.59;5041323;28;19981;-76
2023/03/28 04:25:30;;;;;;;;;;;;;;;-1.51;100.00;102597.44;5043523;28;20375;-76
2023/03/28 04:27:55;;;;;;;;;;;;;;;-1.49;100.00;102606.25;5026280;28;19925;-76
2023/03/28 04:30:20;;;;;;;;;;;;;;;-1.52;100.00;102600.97;5025652;28;19925;-76
2023/03/28 04:32:49;;;;;;;;;;;;;;;-1.56;100.00;102604.47;5041327;28;19979;-76
2023/03/28 04:35:15;;;;;;;;;;;;;;;-1.57;100.00;102600.97;5025176;28;20409;-76
2023/03/28 04:37:40;;;;;;;;;;;;;;;-1.53;100.00;102597.47;5041487;28;19920;-76
2023/03/28 04:40:14;;;;;;;;;;;;;;;-1.47;100.00;102593.94;5018292;28;19966;-76
2023/03/28 04:42:40;;;;;;;;;;;;;;;-1.41;100.00;102593.06;5052706;28;19926;-76
2023/03/28 04:45:05;;;;;;;;;;;;;;;-1.39;100.00;102594.84;5056746;28;19924;-76
2023/03/28 04:47:31;;;;;;;;;;;;;;;-1.42;100.00;102599.22;5040178;28;20627;-76
2023/03/28 04:49:57;;;;;;;;;;;;;;;-1.53;100.00;102599.22;5046182;28;20270;-76
2023/03/28 04:52:22;;;;;;;;;;;;;;;-1.57;100.00;102602.72;5028637;28;19927;-76
2023/03/28 04:54:47;;;;;;;;;;;;;;;-1.60;100.00;102606.22;5032584;28;19924;-76
2023/03/28 04:57:12;;;;;;;;;;;;;;;-1.58;100.00;102604.47;5052113;28;20017;-76
2023/03/28 04:59:38;;;;;;;;;;;;;;;-1.53;100.00;102610.63;5035031;28;20073;-76
2023/03/28 05:02:03;;;;;;;;;;;;;;;-1.58;100.00;102607.13;5033642;28;19920;-76
2023/03/28 05:04:28;;;;;;;;;;;;;;;-1.58;100.00;102606.22;5016522;28;19924;-76
2023/03/28 05:06:54;;;;;;;;;;;;;;;-1.56;100.00;102608.00;5035734;28;20289;-76
2023/03/28 05:09:20;;;;;;;;;;;;;;;-1.57;100.00;102616.78;5035712;28;20776;-76
2023/03/28 05:11:45;;;;;;;;;;;;;;;-1.60;100.00;102614.13;5031832;28;19960;-76
2023/03/28 05:14:11;;;;;;;;;;;;;;;-1.59;100.00;102618.53;5055342;28;20151;-76
2023/03/28 05:16:36;;;;;;;;;;;;;;;-1.60;100.00;102614.13;5039690;28;19935;-76
2023/03/28 05:19:01;;;;;;;;;;;;;;;-1.62;100.00;102615.88;5021393;28;20390;-76
2023/03/28 05:21:26;;;;;;;;;;;;;;;-1.67;100.00;102622.88;5038285;28;19925;-76
2023/03/28 05:23:51;;;;;;;;;;;;;;;-1.74;100.00;102624.63;5035484;28;20297;-76
2023/03/28 05:26:17;;;;;;;;;;;;;;;-1.73;100.00;102620.28;5041743;28;19920;-76
2023/03/28 05:28:42;;;;;;;;;;;;;;;-1.68;100.00;102629.03;5040229;28;20031;-76
2023/03/28 05:31:07;;;;;;;;;;;;;;;-1.64;100.00;102625.53;5035675;28;19948;-76
2023/03/28 05:33:33;;;;;;;;;;;;;;;-1.57;100.00;102629.06;5035998;28;19920;-76
2023/03/28 05:35:59;;;;;;;;;;;;;;;-1.65;100.00;102629.03;5029536;28;19967;-77
2023/03/28 05:38:24;;;;;;;;;;;;;;;-1.73;100.00;102636.94;5030843;28;19999;-76
2023/03/28 05:40:49;;;;;;;;;;;;;;;-1.66;100.00;102646.63;5028863;28;20022;-76
2023/03/28 05:43:15;;;;;;;;;;;;;;;-1.64;100.00;102646.59;5028646;28;19964;-76
2023/03/28 05:45:40;;;;;;;;;;;;;;;-1.68;100.00;102644.84;5033597;28;20035;-76
2023/03/28 05:48:06;;;;;;;;;;;;;;;-1.58;100.00;102646.63;5033194;28;19920;-76
2023/03/28 05:50:31;;;;;;;;;;;;;;;-1.53;100.00;102644.00;5033837;28;20316;-76
2023/03/28 05:52:56;;;;;;;;;;;;;;;-1.42;100.00;102642.28;5053219;28;19921;-76
2023/03/28 05:55:21;;;;;;;;;;;;;;;-1.32;100.00;102639.66;5045548;28;19986;-76
2023/03/28 05:57:47;;;;;;;;;;;;;;;-1.34;100.00;102642.28;5030172;28;19962;-76
2023/03/28 06:00:12;;;;;;;;;;;;;;;-1.25;100.00;102644.94;5036693;28;20017;-76
2023/03/28 06:02:39;;;;;;;;;;;;;;;-1.15;100.00;102644.91;5050797;28;19932;-76
2023/03/28 06:05:06;;;;;;;;;;;;;;;-1.11;100.00;102650.22;5033351;28;20093;-76
2023/03/28 06:07:31;;;;;;;;;;;;;;;-1.08;100.00;102644.94;5035081;28;19920;-76
2023/03/28 06:09:56;;;;;;;;;;;;;;;-1.01;100.00;102639.63;5017216;28;20232;-76
2023/03/28 06:12:22;;;;;;;;;;;;;;;-0.95;100.00;102640.53;5031325;28;20406;-76
2023/03/28 06:14:47;;;;;;;;;;;;;;;-0.92;100.00;102640.50;5025323;28;20348;-76
2023/03/28 06:17:12;;;;;;;;;;;;;;;-0.92;100.00;102639.66;5030135;28;19916;-76
2023/03/28 06:19:37;;;;;;;;;;;;;;;-0.84;100.00;102639.63;5037078;28;19966;-76
2023/03/28 06:22:03;;;;;;;;;;;;;;;-0.72;100.00;102644.91;5040345;28;19912;-76
2023/03/28 06:24:28;;;;;;;;;;;;;;;-0.62;100.00;102641.34;5040298;28;19928;-76
2023/03/28 06:26:53;;;;;;;;;;;;;;;-0.53;100.00;102635.16;5024766;28;19966;-76
2023/03/28 06:29:18;;;;;;;;;;;;;;;-0.44;100.00;102634.28;5023550;28;20417;-76
2023/03/28 06:31:44;;;;;;;;;;;;;;;-0.30;100.00;102639.53;5039415;28;19969;-76
2023/03/28 06:34:09;;;;;;;;;;;;;;;-0.24;100.00;102636.84;5042014;28;19928;-76
2023/03/28 06:36:34;;;;;;;;;;;;;;;-0.11;100.00;102632.38;5039655;28;20362;-76
2023/03/28 06:39:00;;;;;;;;;;;;;;;0.09;100.00;102639.38;5020865;28;19967;-76
2023/03/28 06:41:25;;;;;;;;;;;;;;;0.00;100.00;102640.28;5039115;28;19963;-76
2023/03/28 06:43:50;;;;;;;;;;;;;;;0.14;100.00;102629.63;5025195;28;19920;-76
2023/03/28 06:46:16;;;;;;;;;;;;;;;0.29;100.00;102634.84;5038093;28;19927;-76
2023/03/28 06:48:41;;;;;;;;;;;;;;;0.46;100.00;102640.91;5023102;28;19931;-76
2023/03/28 06:51:06;;;;;;;;;;;;;;;0.77;100.00;102641.56;5040994;28;19921;-76
2023/03/28 06:53:31;;;;;;;;;;;;;;;0.78;100.00;102640.69;5041110;28;20015;-76
2023/03/28 06:55:58;;;;;;;;;;;;;;;1.00;100.00;102636.09;5037347;28;19923;-76
2023/03/28 06:58:23;;;;;;;;;;;;;;;1.00;100.00;102638.75;5039475;28;20378;-76
2023/03/28 07:00:51;;;;;;;;;;;;;;;1.04;100.00;102639.59;5055876;28;20475;-76
2023/03/28 07:03:17;;;;;;;;;;;;;;;1.07;100.00;102633.38;5038220;28;19920;-76
2023/03/28 07:05:42;;;;;;;;;;;;;;;1.21;100.00;102644.72;5037447;28;19916;-77
2023/03/28 07:08:07;;;;;;;;;;;;;;;1.18;100.00;102637.72;5041015;28;19923;-76
2023/03/28 07:10:33;;;;;;;;;;;;;;;1.07;100.00;102633.38;5022937;28;19924;-77
2023/03/28 07:12:58;;;;;;;;;;;;;;;1.08;100.00;102648.38;5032968;28;19924;-76
2023/03/28 07:15:23;;;;;;;;;;;;;;;1.02;100.00;102651.94;5037157;28;19924;-77
2023/03/28 07:17:48;;;;;;;;;;;;;;;1.13;100.00;102650.09;5025836;28;19931;-77
2023/03/28 07:20:14;;;;;;;;;;;;;;;1.34;100.00;102651.63;5020714;28;19974;-76
2023/03/28 07:22:39;;;;;;;;;;;;;;;1.37;100.00;102647.22;5041600;28;19998;-76
2023/03/28 07:25:06;;;;;;;;;;;;;;;1.62;100.00;102647.84;5038314;28;19921;-77
2023/03/28 07:27:32;;;;;;;;;;;;;;;1.76;100.00;102652.97;5026311;28;19981;-76
2023/03/28 07:29:57;;;;;;;;;;;;;;;2.05;100.00;102659.69;5035340;28;19925;-77
2023/03/28 07:32:22;;;;;;;;;;;;;;;2.16;100.00;102652.47;5044000;28;19916;-76
2023/03/28 07:34:47;;;;;;;;;;;;;;;2.17;100.00;102661.31;5026223;28;19960;-78
2023/03/28 07:37:13;;;;;;;;;;;;;;;2.56;100.00;102658.97;5024843;28;19954;-77
2023/03/28 07:39:40;;;;;;;;;;;;;;;2.70;100.00;102662.31;5022750;28;19974;-77
2023/03/28 07:42:08;;;;;;;;;;;;;;;2.74;100.00;102667.59;5024142;28;19920;-77
2023/03/28 07:44:33;;;;;;;;;;;;;;;2.84;100.00;102663.88;5021231;28;20485;-79
2023/03/28 07:46:58;;;;;;;;;;;;;;;3.19;100.00;102661.50;5038105;28;20336;-77
2023/03/28 07:49:24;;;;;;;;;;;;;;;3.15;100.00;102666.00;5040765;28;19916;-79
2023/03/28 07:51:51;;;;;;;;;;;;;;;3.09;100.00;102668.75;5022801;28;19927;-78
2023/03/28 07:54:16;;;;;;;;;;;;;;;3.38;100.00;102675.34;5020235;28;20379;-77
2023/03/28 07:56:43;;;;;;;;;;;;;;;3.36;100.00;102671.84;5016549;28;19940;-79
2023/03/28 07:59:09;;;;;;;;;;;;;;;3.57;100.00;102674.13;5032691;28;19921;-78
2023/03/28 08:01:34;;;;;;;;;;;;;;;3.65;100.00;102675.75;5038831;28;19921;-78
2023/03/28 08:03:59;;;;;;;;;;;;;;;3.97;100.00;102675.13;5038426;28;19920;-79
2023/03/28 08:06:25;;;;;;;;;;;;;;;3.84;100.00;102662.97;5054683;28;20320;-78
2023/03/28 08:08:50;;;;;;;;;;;;;;;4.03;100.00;102663.47;5021813;28;20035;-79
2023/03/28 08:11:16;;;;;;;;;;;;;;;4.22;100.00;102671.94;5021220;28;20414;-78
2023/03/28 08:13:41;;;;;;;;;;;;;;;4.38;100.00;102661.81;5018907;28;19928;-77
2023/03/28 08:16:06;;;;;;;;;;;;;;;4.72;100.00;102666.34;5036646;28;19921;-79
2023/03/28 08:18:32;;;;;;;;;;;;;;;5.05;100.00;102654.91;5037032;28;19931;-77
2023/03/28 08:20:59;;;;;;;;;;;;;;;4.97;100.00;102671.09;5023516;28;19916;-77
2023/03/28 08:23:25;;;;;;;;;;;;;;;5.05;100.00;102660.22;5034538;28;20436;-79
2023/03/28 08:25:50;;;;;;;;;;;;;;;5.06;100.00;102661.97;5036719;28;20030;-79
2023/03/28 08:28:16;;;;;;;;;;;;;;;5.07;100.00;102669.94;5037261;28;19939;-77
2023/03/28 08:30:41;;;;;;;;;;;;;;;4.80;100.00;102675.03;5057563;28;19932;-77
2023/03/28 08:33:06;;;;;;;;;;;;;;;4.87;100.00;102673.09;5040236;28;19917;-79
2023/03/28 08:35:32;;;;;;;;;;;;;;;4.91;100.00;102666.78;5021892;28;19958;-79
2023/03/28 08:37:57;;;;;;;;;;;;;;;5.20;100.00;102656.31;5026830;28;19985;-79
2023/03/28 08:40:23;;;;;;;;;;;;;;;5.13;100.00;102660.94;5021514;28;19995;-78
2023/03/28 08:42:51;;;;;;;;;;;;;;;5.19;100.00;102668.75;5038159;28;19974;-79
2023/03/28 08:45:31;;;;;;;;;;;;;;;5.19;100.00;102662.53;5039906;28;19935;-79
2023/03/28 08:47:57;;;;;;;;;;;;;;;5.12;100.00;102661.84;5052814;28;19935;-77
2023/03/28 08:50:30;;;;;;;;;;;;;;;5.28;100.00;102658.78;5052194;28;20264;-79
2023/03/28 08:52:55;;;;;;;;;;;;;;;5.70;100.00;102658.53;5037195;28;19928;-79
2023/03/28 08:55:20;;;;;;;;;;;;;;;5.65;100.00;102657.78;5039391;28;19920;-78
2023/03/28 08:57:45;;;;;;;;;;;;;;;6.02;100.00;102651.44;5039083;28;19920;-78
2023/03/28 09:00:26;;;;;;;;;;;;;;;5.95;100.00;102653.38;5037159;28;19921;-78
2023/03/28 09:02:51;;;;;;;;;;;;;;;5.88;100.00;102641.16;5032399;28;19947;-79
2023/03/28 09:05:24;;;;;;;;;;;;;;;5.91;100.00;102648.16;5039750;28;20298;-78
2023/03/28 09:08:01;;;;;;;;;;;;;;;6.13;94.55;102645.78;5022479;28;19932;-78
2023/03/28 09:10:41;;;;;;;;;;;;;;;5.83;95.36;102641.25;5053745;28;20378;-78
2023/03/28 09:13:14;;;;;;;;;;;;;;;6.20;94.52;102635.78;5020227;28;20397;-77
2023/03/28 09:15:45;;;;;;;;;;;;;;;6.20;95.67;102636.69;5038650;28;19920;-77
2023/03/28 09:18:30;;;;;;;;;;;;;;;6.11;95.67;102645.81;5049686;28;19928;-78
2023/03/28 09:21:01;;;;;;;;;;;;;;;5.93;99.54;102636.56;5038473;28;20348;-78
2023/03/28 09:23:26;;;;;;;;;;;;;;;5.84;94.52;102636.81;5033937;28;19924;-77
2023/03/28 09:25:54;;;;;;;;;;;;;;;5.91;97.34;102637.50;5056564;28;19920;-79
2023/03/28 09:28:39;;;;;;;;;;;;;;;6.18;95.10;102637.63;5038893;28;19920;-76
2023/03/28 09:31:04;;;;;;;;;;;;;;;6.47;92.95;102628.75;5055528;28;19924;-79
2023/03/28 09:33:37;;;;;;;;;;;;;;;6.17;83.48;102628.78;5039302;28;19924;-78
2023/03/28 09:36:02;;;;;;;;;;;;;;;6.03;91.75;102621.19;5034571;28;19913;-79
2023/03/28 09:38:35;;;;;;;;;;;;;;;6.36;87.36;102628.19;5036731;28;19928;-80
2023/03/28 09:41:01;;;;;;;;;;;;;;;6.09;89.54;102628.13;5038367;28;19927;-79
2023/03/28 09:43:34;;;;;;;;;;;;;;;6.24;89.06;102624.09;5022207;28;19916;-78
2023/03/28 09:46:01;;;;;;;;;;;;;;;6.29;87.91;102628.38;5038857;28;19921;-77
2023/03/28 09:48:36;;;;;;;;;;;;;;;6.17;83.05;102614.53;5025962;28;20465;-79
2023/03/28 09:51:02;;;;;;;;;;;;;;;6.33;87.62;102621.16;5018797;28;20007;-79
2023/03/28 09:53:29;;;;;;;;;;;;;;;6.45;83.97;102612.75;5038971;28;19993;-77
2023/03/28 09:55:55;;;;;;;;;;;;;;;6.21;73.37;102613.53;5038603;28;20015;-78
2023/03/28 09:58:20;;;;;;;;;;;;;;;6.06;76.30;102618.44;5020202;28;20019;-79
2023/03/28 10:00:47;;;;;;;;;;;;;;;5.98;73.07;102618.59;5019573;28;20522;-77
2023/03/28 10:03:27;;;;;;;;;;;;;;;6.20;76.91;102606.44;5016944;28;19916;-77
2023/03/28 10:05:53;;;;;;;;;;;;;;;6.44;73.20;102594.16;5023429;28;20257;-79
2023/03/28 10:08:34;;;;;;;;;;;;;;;6.09;80.90;102604.13;5037376;28;19965;-78
2023/03/28 10:11:05;;;;;;;;;;;;;;;6.30;79.66;102594.59;5036839;28;19931;-77
2023/03/28 10:13:57;;;;;;;;;;;;;;;6.29;80.97;102601.69;5020443;28;20480;-76
2023/03/28 10:16:29;;;;;;;;;;;;;;;6.18;77.40;102587.84;5031894;28;19974;-77
2023/03/28 10:18:54;;;;;;;;;;;;;;;5.99;74.02;102590.16;5033444;28;19954;-76
2023/03/28 10:21:20;;;;;;;;;;;;;;;6.39;71.97;102590.75;5029452;28;20541;-78
2023/03/28 10:23:51;;;;;;;;;;;;;;;6.26;72.97;102583.13;5036769;28;20363;-78
2023/03/28 10:26:17;;;;;;;;;;;;;;;6.57;75.82;102562.59;5030325;28;19920;-78
2023/03/28 10:28:42;;;;;;;;;;;;;;;6.55;68.46;102559.09;5018027;28;20420;-77
2023/03/28 10:31:09;;;;;;;;;;;;;;;6.49;69.08;102554.81;5018061;28;19933;-79
2023/03/28 10:33:34;;;;;;;;;;;;;;;6.15;66.44;102554.13;5038874;28;19977;-76
2023/03/28 10:36:00;;;;;;;;;;;;;;;6.53;73.88;102544.94;5036110;28;19929;-77
2023/03/28 10:38:26;;;;;;;;;;;;;;;6.11;68.45;102555.13;5053611;28;19921;-77
2023/03/28 10:40:57;;;;;;;;;;;;;;;6.37;69.90;102544.56;5030486;28;19940;-76
2023/03/28 10:43:27;;;;;;;;;;;;;;;6.26;71.89;102548.44;5039283;28;19920;-78
2023/03/28 10:45:52;;;;;;;;;;;;;;;6.41;66.77;102547.06;5022509;28;19924;-77
2023/03/28 10:48:19;;;;;;;;;;;;;;;6.15;69.73;102534.59;5014806;28;19921;-77
2023/03/28 10:50:53;;;;;;;;;;;;;;;5.95;70.59;102545.84;5009130;28;19924;-76
2023/03/28 10:53:38;;;;;;;;;;;;;;;6.09;73.98;102540.13;5029821;28;19940;-80
2023/03/28 10:56:18;;;;;;;;;;;;;;;6.18;73.92;102537.16;5019345;28;20377;-78
2023/03/28 10:58:50;;;;;;;;;;;;;;;6.23;72.79;102534.34;5039532;28;19920;-75
2023/03/28 11:01:23;;;;;;;;;;;;;;;6.34;73.41;102531.31;5026681;28;20011;-75
2023/03/28 11:04:21;;;;;;;;;;;;;;;6.24;70.91;102522.75;5015233;28;20478;-77
2023/03/28 11:06:52;;;;;;;;;;;;;;;6.76;71.29;102530.78;4990020;28;19920;-77
2023/03/28 11:09:21;;;;;;;;;;;;;;;6.92;76.79;102520.44;5051536;28;19920;-75
2023/03/28 11:12:01;;;;;;;;;;;;;;;6.84;70.53;102512.72;5033197;28;20003;-75
2023/03/28 11:14:40;;;;;;;;;;;;;;;7.33;69.67;102512.75;5057375;28;20007;-77
2023/03/28 11:17:12;;;;;;;;;;;;;;;7.54;73.32;102518.19;5041057;28;19916;-76
2023/03/28 11:19:40;;;;;;;;;;;;;;;7.51;70.08;102515.63;5021347;28;19973;-74
2023/03/28 11:22:09;;;;;;;;;;;;;;;7.99;72.18;102518.25;5056662;28;20252;-74
2023/03/28 11:24:37;;;;;;;;;;;;;;;8.23;68.84;102506.53;5035428;28;19994;-76
2023/03/28 11:27:23;;;;;;;;;;;;;;;8.44;68.32;102503.94;5038382;28;20442;-77
2023/03/28 11:29:50;;;;;;;;;;;;;;;8.69;63.57;102493.06;5019021;28;20023;-76
2023/03/28 11:32:16;;;;;;;;;;;;;;;9.07;60.39;102489.63;5033204;28;19916;-73
2023/03/28 11:34:43;;;;;;;;;;;;;;;8.55;58.59;102476.72;5036283;28;19917;-79
2023/03/28 11:37:12;;;;;;;;;;;;;;;9.06;63.03;102468.25;5034981;28;19965;-77
2023/03/28 11:39:41;;;;;;;;;;;;;;;9.59;64.81;102469.38;5033729;28;19916;-77
2023/03/28 11:42:12;;;;;;;;;;;;;;;9.74;57.38;102455.25;5047949;28;19967;-77
2023/03/28 11:45:03;;;;;;;;;;;;;;;9.70;56.30;102445.59;5027359;28;19963;-77
2023/03/28 11:47:33;;;;;;;;;;;;;;;9.25;57.48;102460.25;5044878;28;21297;-77
2023/03/28 11:50:06;;;;;;;;;;;;;;;9.00;57.44;102448.84;5015467;28;19931;-78
2023/03/28 11:52:35;;;;;;;;;;;;;;;9.20;60.66;102455.09;5028799;28;19927;-77
2023/03/28 11:55:17;;;;;;;;;;;;;;;9.20;58.64;102449.72;5026392;28;19940;-76
2023/03/28 11:57:42;;;;;;;;;;;;;;;10.07;60.13;102432.19;5009505;28;20404;-78
2023/03/28 12:00:13;;;;;;;;;;;;;;;9.80;56.36;102437.97;5028742;28;19924;-77
2023/03/28 12:02:40;;;;;;;;;;;;;;;10.02;55.06;102432.44;5029324;28;20425;-77
2023/03/28 12:05:18;;;;;;;;;;;;;;;10.29;52.09;102410.50;5046012;28;20125;-77
2023/03/28 12:08:03;;;;;;;;;;;;;;;10.10;54.85;102405.19;5033680;28;19928;-77
2023/03/28 12:10:34;;;;;;;;;;;;;;;10.03;56.34;102393.03;5048425;28;20087;-77
2023/03/28 12:13:09;;;;;;;;;;;;;;;10.13;55.36;102385.38;5015899;28;19975;-77
2023/03/28 12:15:44;;;;;;;;;;;;;;;9.97;55.55;102386.16;5054420;28;19964;-77
2023/03/28 12:18:11;;;;;;;;;;;;;;;9.54;57.81;102372.19;5055684;28;19928;-79
2023/03/28 12:20:38;;;;;;;;;;;;;;;9.98;55.14;102392.38;5030227;28;19927;-76
2023/03/28 12:23:11;;;;;;;;;;;;;;;10.01;49.52;102381.50;5016890;28;19920;-76
2023/03/28 12:25:48;;;;;;;;;;;;;;;9.66;51.57;102370.75;5029832;28;20010;-77
2023/03/28 12:28:19;;;;;;;;;;;;;;;9.41;52.74;102363.88;5037052;28;20367;-80
2023/03/28 12:30:58;;;;;;;;;;;;;;;9.20;49.39;102363.97;5035795;28;19989;-77
2023/03/28 12:33:43;;;;;;;;;;;;;;;8.91;54.28;102368.88;5025430;28;19982;-75
2023/03/28 12:36:17;;;;;;;;;;;;;;;8.89;52.21;102369.91;5047001;28;20335;-77
2023/03/28 12:38:47;;;;;;;;;;;;;;;8.94;52.24;102347.31;5027045;28;19924;-77